createdAt,value
2018-03-17T00:01:15.074Z,100527.65
2018-03-17T00:04:18.271Z,100527.57
2018-03-17T00:07:21.430Z,100529.44
2018-03-17T00:10:24.705Z,100519.16
2018-03-17T00:13:27.891Z,100524.30
2018-03-17T00:16:31.075Z,100517.79
2018-03-17T00:19:34.231Z,100522.50
2018-03-17T00:22:37.458Z,100516.41
2018-03-17T00:25:40.668Z,100520.16
2018-03-17T00:28:43.843Z,100515.71
2018-03-17T00:31:47.151Z,100515.55
2018-03-17T00:34:50.334Z,100516.50
2018-03-17T00:37:53.675Z,100507.15
2018-03-17T00:40:56.951Z,100502.35
2018-03-17T00:44:00.222Z,100501.11
2018-03-17T00:47:03.551Z,100503.67
2018-03-17T00:50:06.766Z,100515.55
2018-03-17T00:53:10.016Z,100525.56
2018-03-17T00:56:13.214Z,100523.96
2018-03-17T00:59:16.450Z,100523.60
2018-03-17T01:02:19.575Z,100523.42
2018-03-17T01:05:22.751Z,100527.01
2018-03-17T01:08:25.985Z,100528.09
2018-03-17T01:11:29.302Z,100534.85
2018-03-17T01:14:32.589Z,100541.20
2018-03-17T01:17:35.727Z,100543.54
2018-03-17T01:20:38.878Z,100537.93
2018-03-17T01:23:42.042Z,100539.45
2018-03-17T01:26:45.274Z,100544.45
2018-03-17T01:29:48.466Z,100543.74
2018-03-17T01:32:51.618Z,100539.24
2018-03-17T01:35:54.754Z,100534.18
2018-03-17T01:38:57.975Z,100532.53
2018-03-17T01:42:01.137Z,100527.75
2018-03-17T01:45:04.513Z,100526.25
2018-03-17T01:48:07.785Z,100524.64
2018-03-17T01:51:10.955Z,100513.90
2018-03-17T01:54:23.029Z,100507.97
2018-03-17T01:57:26.239Z,100502.94
2018-03-17T02:00:29.427Z,100496.81
2018-03-17T02:03:32.639Z,100492.25
2018-03-17T02:06:35.837Z,100496.17
2018-03-17T02:09:39.098Z,100494.64
2018-03-17T02:12:42.283Z,100495.89
2018-03-17T02:15:45.527Z,100493.12
2018-03-17T02:18:48.708Z,100495.25
2018-03-17T02:21:51.906Z,100491.10
2018-03-17T02:24:55.109Z,100486.04
2018-03-17T02:27:58.299Z,100482.01
2018-03-17T02:31:01.491Z,100478.92
2018-03-17T02:34:04.692Z,100483.67
2018-03-17T02:37:07.879Z,100481.17
2018-03-17T02:40:11.060Z,100481.81
2018-03-17T02:43:14.308Z,100483.46
2018-03-17T02:46:17.452Z,100487.13
2018-03-17T02:49:20.698Z,100488.33
2018-03-17T02:52:23.879Z,100481.73
2018-03-17T02:55:27.059Z,100487.57
2018-03-17T02:58:30.237Z,100478.76
2018-03-17T03:01:33.487Z,100474.61
2018-03-17T03:04:36.698Z,100480.22
2018-03-17T03:07:39.847Z,100482.62
2018-03-17T03:10:43.003Z,100478.06
2018-03-17T03:13:46.246Z,100477.13
2018-03-17T03:16:49.446Z,100473.55
2018-03-17T03:19:52.614Z,100474.06
2018-03-17T03:22:55.799Z,100474.38
2018-03-17T03:25:58.988Z,100473.70
2018-03-17T03:29:02.203Z,100478.19
2018-03-17T03:32:05.354Z,100477.03
2018-03-17T03:35:08.570Z,100474.28
2018-03-17T03:38:11.679Z,100475.81
2018-03-17T03:41:14.890Z,100476.71
2018-03-17T03:44:18.074Z,100476.15
2018-03-17T03:47:21.282Z,100475.53
2018-03-17T03:50:24.466Z,100474.92
2018-03-17T03:53:27.670Z,100468.70
2018-03-17T03:56:30.854Z,100470.42
2018-03-17T03:59:34.056Z,100473.40
2018-03-17T04:02:37.206Z,100472.04
2018-03-17T04:05:40.437Z,100478.33
2018-03-17T04:08:43.578Z,100479.67
2018-03-17T04:11:46.834Z,100478.12
2018-03-17T04:14:49.985Z,100479.01
2018-03-17T04:17:53.250Z,100471.43
2018-03-17T04:20:56.410Z,100469.28
2018-03-17T04:23:59.621Z,100472.66
2018-03-17T04:27:02.747Z,100470.85
2018-03-17T04:30:06.012Z,100463.13
2018-03-17T04:33:09.213Z,100461.34
2018-03-17T04:36:12.391Z,100459.46
2018-03-17T04:39:15.598Z,100457.90
2018-03-17T04:42:18.810Z,100464.76
2018-03-17T04:45:21.970Z,100459.43
2018-03-17T04:48:25.170Z,100460.90
2018-03-17T04:51:28.373Z,100459.65
2018-03-17T04:54:31.524Z,100455.03
2018-03-17T04:57:34.671Z,100456.38
2018-03-17T05:00:37.983Z,100449.24
2018-03-17T05:03:41.137Z,100455.75
2018-03-17T05:06:44.406Z,100453.13
2018-03-17T05:09:47.682Z,100451.19
2018-03-17T05:12:50.857Z,100451.98
2018-03-17T05:15:54.054Z,100453.92
2018-03-17T05:18:57.233Z,100448.58
2018-03-17T05:22:00.389Z,100444.61
2018-03-17T05:25:03.640Z,100444.56
2018-03-17T05:28:06.847Z,100441.10
2018-03-17T05:31:10.021Z,100442.03
2018-03-17T05:34:13.227Z,100441.41
2018-03-17T05:37:16.394Z,100444.25
2018-03-17T05:40:19.546Z,100449.02
2018-03-17T05:43:22.701Z,100448.89
2018-03-17T05:46:25.900Z,100451.68
2018-03-17T05:49:29.110Z,100449.58
2018-03-17T05:52:35.628Z,100447.41
2018-03-17T05:55:39.426Z,100447.34
2018-03-17T05:58:42.646Z,100446.99
2018-03-17T06:01:45.853Z,100454.72
2018-03-17T06:04:49.044Z,100456.54
2018-03-17T06:07:52.342Z,100449.33
2018-03-17T06:10:55.479Z,100455.18
2018-03-17T06:13:58.734Z,100449.82
2018-03-17T06:17:01.927Z,100455.09
2018-03-17T06:20:05.131Z,100455.59
2018-03-17T06:23:08.371Z,100450.05
2018-03-17T06:26:11.644Z,100449.80
2018-03-17T06:29:14.877Z,100453.97
2018-03-17T06:32:18.021Z,100454.62
2018-03-17T06:35:21.170Z,100452.41
2018-03-17T06:38:24.325Z,100454.42
2018-03-17T06:41:27.490Z,100447.16
2018-03-17T06:44:30.702Z,100445.16
2018-03-17T06:47:33.907Z,100446.64
2018-03-17T06:50:37.046Z,100444.84
2018-03-17T06:53:40.426Z,100444.08
2018-03-17T06:56:43.649Z,100446.55
2018-03-17T06:59:46.861Z,100443.24
2018-03-17T07:02:50.054Z,100437.68
2018-03-17T07:05:53.463Z,100430.73
2018-03-17T07:08:56.622Z,100428.01
2018-03-17T07:11:59.893Z,100430.50
2018-03-17T07:15:03.047Z,100438.02
2018-03-17T07:18:06.264Z,100431.21
2018-03-17T07:21:09.399Z,100437.24
2018-03-17T07:24:12.625Z,100428.11
2018-03-17T07:27:15.789Z,100433.36
2018-03-17T07:30:19.067Z,100434.89
2018-03-17T07:33:22.325Z,100437.04
2018-03-17T07:36:25.522Z,100439.18
2018-03-17T07:39:28.884Z,100438.84
2018-03-17T07:42:32.027Z,100440.58
2018-03-17T07:45:35.222Z,100436.12
2018-03-17T07:48:38.409Z,100444.36
2018-03-17T07:51:41.612Z,100448.37
2018-03-17T07:54:44.790Z,100445.94
2018-03-17T07:57:47.985Z,100440.11
2018-03-17T08:00:53.494Z,100431.33
2018-03-17T08:03:56.743Z,100435.06
2018-03-17T08:06:59.952Z,100438.76
2018-03-17T08:10:03.177Z,100434.66
2018-03-17T08:13:06.327Z,100430.66
2018-03-17T08:16:09.703Z,100435.24
2018-03-17T08:19:12.970Z,100443.91
2018-03-17T08:22:16.215Z,100429.44
2018-03-17T08:25:19.370Z,100434.36
2018-03-17T08:28:22.527Z,100441.73
2018-03-17T08:31:25.693Z,100426.22
2018-03-17T08:34:28.846Z,100416.69
2018-03-17T08:37:31.984Z,100417.01
2018-03-17T08:40:35.159Z,100415.76
2018-03-17T08:43:38.370Z,100412.52
2018-03-17T08:46:41.547Z,100415.00
2018-03-17T08:49:44.809Z,100407.27
2018-03-17T08:52:47.978Z,100408.77
2018-03-17T08:55:51.146Z,100402.61
2018-03-17T08:58:54.345Z,100407.30
2018-03-17T09:01:57.532Z,100414.05
2018-03-17T09:05:00.697Z,100410.04
2018-03-17T09:08:03.841Z,100405.57
2018-03-17T09:11:07.388Z,100398.08
2018-03-17T09:14:10.691Z,100402.69
2018-03-17T09:17:13.817Z,100401.68
2018-03-17T09:20:17.005Z,100407.76
2018-03-17T09:23:20.252Z,100400.46
2018-03-17T09:26:23.494Z,100401.27
2018-03-17T09:29:26.756Z,100405.64
2018-03-17T09:32:29.841Z,100407.13
2018-03-17T09:35:32.986Z,100403.77
2018-03-17T09:38:36.173Z,100398.35
2018-03-17T09:41:39.433Z,100395.97
2018-03-17T09:44:42.673Z,100398.44
2018-03-17T09:47:45.869Z,100396.97
2018-03-17T09:50:49.074Z,100390.32
2018-03-17T09:53:52.231Z,100391.54
2018-03-17T09:56:55.451Z,100396.00
2018-03-17T09:59:58.652Z,100395.26
2018-03-17T10:03:01.847Z,100390.91
2018-03-17T10:06:05.044Z,100389.10
2018-03-17T10:09:08.230Z,100388.44
2018-03-17T10:12:11.420Z,100387.81
2018-03-17T10:15:14.617Z,100377.62
2018-03-17T10:18:17.840Z,100374.22
2018-03-17T10:21:21.019Z,100370.77
2018-03-17T10:24:24.239Z,100368.03
2018-03-17T10:27:27.406Z,100374.14
2018-03-17T10:30:30.603Z,100377.41
2018-03-17T10:33:33.787Z,100383.94
2018-03-17T10:36:37.128Z,100381.86
2018-03-17T10:39:40.502Z,100369.86
2018-03-17T10:42:43.654Z,100377.99
2018-03-17T10:45:47.033Z,100376.40
2018-03-17T10:48:50.174Z,100385.76
2018-03-17T10:51:53.384Z,100386.70
2018-03-17T10:54:56.567Z,100383.81
2018-03-17T10:57:59.811Z,100388.72
2018-03-17T11:01:07.203Z,100385.35
2018-03-17T11:04:10.628Z,100375.74
2018-03-17T11:07:13.821Z,100374.60
2018-03-17T11:10:16.958Z,100379.22
2018-03-17T11:13:20.157Z,100379.46
2018-03-17T11:16:23.326Z,100373.75
2018-03-17T11:19:26.521Z,100367.33
2018-03-17T11:22:29.746Z,100367.79
2018-03-17T11:25:32.916Z,100361.80
2018-03-17T11:28:36.106Z,100364.29
2018-03-17T11:31:39.329Z,100361.69
2018-03-17T11:34:42.610Z,100359.26
2018-03-17T11:37:45.821Z,100351.73
2018-03-17T11:40:48.999Z,100349.88
2018-03-17T11:43:52.211Z,100349.77
2018-03-17T11:46:55.370Z,100339.63
2018-03-17T11:49:58.625Z,100344.32
2018-03-17T11:53:01.932Z,100339.42
2018-03-17T11:56:05.094Z,100342.34
2018-03-17T11:59:08.264Z,100342.31
2018-03-17T12:02:11.419Z,100343.11
2018-03-17T12:05:14.655Z,100349.18
2018-03-17T12:08:17.859Z,100347.85
2018-03-17T12:11:21.062Z,100350.86
2018-03-17T12:14:24.230Z,100342.49
2018-03-17T12:17:27.448Z,100339.67
2018-03-17T12:20:30.644Z,100336.47
2018-03-17T12:23:33.843Z,100337.81
2018-03-17T12:26:37.090Z,100335.43
2018-03-17T12:29:40.643Z,100331.64
2018-03-17T12:32:43.820Z,100330.42
2018-03-17T12:35:46.995Z,100329.30
2018-03-17T12:38:50.128Z,100327.06
2018-03-17T12:41:53.330Z,100329.95
2018-03-17T12:44:56.626Z,100327.89
2018-03-17T12:47:59.822Z,100331.52
2018-03-17T12:51:02.996Z,100333.22
2018-03-17T12:54:06.315Z,100331.72
2018-03-17T12:57:09.492Z,100333.69
2018-03-17T13:00:12.933Z,100331.00
2018-03-17T13:03:16.086Z,100329.17
2018-03-17T13:06:19.212Z,100328.76
2018-03-17T13:09:22.365Z,100325.20
2018-03-17T13:12:25.587Z,100323.20
2018-03-17T13:15:28.990Z,100320.90
2018-03-17T13:18:32.171Z,100322.84
2018-03-17T13:21:35.310Z,100321.68
2018-03-17T13:24:38.480Z,100324.57
2018-03-17T13:27:53.059Z,100327.91
2018-03-17T13:30:56.227Z,100323.67
2018-03-17T13:33:59.409Z,100321.17
2018-03-17T13:37:17.816Z,100323.46
2018-03-17T13:40:31.048Z,100327.93
2018-03-17T13:43:34.389Z,100336.07
2018-03-17T13:46:37.591Z,100340.67
2018-03-17T13:49:40.807Z,100334.04
2018-03-17T13:52:43.971Z,100331.26
2018-03-17T13:55:47.208Z,100336.66
2018-03-17T13:58:50.513Z,100332.91
2018-03-17T14:01:53.659Z,100332.34
2018-03-17T14:04:56.848Z,100336.28
2018-03-17T14:08:00.086Z,100334.32
2018-03-17T14:11:03.289Z,100332.31
2018-03-17T14:14:06.446Z,100327.57
2018-03-17T14:17:09.630Z,100333.24
2018-03-17T14:20:12.957Z,100334.56
2018-03-17T14:23:16.133Z,100335.40
2018-03-17T14:26:19.442Z,100336.39
2018-03-17T14:29:22.617Z,100337.62
2018-03-17T14:32:25.734Z,100336.91
2018-03-17T14:35:28.922Z,100337.01
2018-03-17T14:38:32.103Z,100334.10
2018-03-17T14:41:35.244Z,100346.04
2018-03-17T14:44:38.397Z,100340.15
2018-03-17T14:47:41.586Z,100343.59
2018-03-17T14:50:44.783Z,100346.17
2018-03-17T14:53:48.052Z,100342.13
2018-03-17T14:56:51.211Z,100349.72
2018-03-17T14:59:54.637Z,100350.55
2018-03-17T15:02:57.818Z,100358.61
2018-03-17T15:06:01.440Z,100355.82
2018-03-17T15:09:05.214Z,100357.29
2018-03-17T15:12:08.361Z,100363.91
2018-03-17T15:15:11.626Z,100367.30
2018-03-17T15:18:14.877Z,100370.97
2018-03-17T15:21:18.106Z,100370.86
2018-03-17T15:24:21.275Z,100360.55
2018-03-17T15:27:24.466Z,100371.66
2018-03-17T15:30:27.657Z,100374.87
2018-03-17T15:33:30.850Z,100370.20
2018-03-17T15:36:34.039Z,100359.11
2018-03-17T15:39:37.248Z,100363.17
2018-03-17T15:42:40.433Z,100370.61
2018-03-17T15:45:43.643Z,100370.92
2018-03-17T15:48:46.823Z,100360.73
2018-03-17T15:51:50.040Z,100361.16
2018-03-17T15:54:53.211Z,100357.50
2018-03-17T15:57:56.580Z,100355.60
2018-03-17T16:00:59.718Z,100351.87
2018-03-17T16:04:02.918Z,100353.86
2018-03-17T16:07:06.061Z,100363.39
2018-03-17T16:10:09.303Z,100358.71
2018-03-17T16:13:12.894Z,100358.30
2018-03-17T16:16:16.136Z,100358.57
2018-03-17T16:19:19.661Z,100359.51
2018-03-17T16:22:23.073Z,100361.56
2018-03-17T16:25:26.323Z,100362.49
2018-03-17T16:28:29.562Z,100375.73
2018-03-17T16:31:32.788Z,100369.51
2018-03-17T16:34:36.082Z,100370.40
2018-03-17T16:37:39.426Z,100373.18
2018-03-17T16:40:42.704Z,100382.19
2018-03-17T16:43:45.988Z,100390.87
2018-03-17T16:46:49.274Z,100391.53
2018-03-17T16:49:52.612Z,100392.60
2018-03-17T16:52:55.871Z,100401.34
2018-03-17T16:55:59.111Z,100397.92
2018-03-17T16:59:02.372Z,100383.94
2018-03-17T17:02:05.668Z,100389.86
2018-03-17T17:05:08.893Z,100400.15
2018-03-17T17:08:12.074Z,100411.76
2018-03-17T17:11:15.734Z,100409.13
2018-03-17T17:14:19.124Z,100418.45
2018-03-17T17:17:22.312Z,100417.65
2018-03-17T17:20:25.450Z,100413.29
2018-03-17T17:23:28.761Z,100428.98
2018-03-17T17:26:32.081Z,100429.49
2018-03-17T17:29:35.230Z,100436.35
2018-03-17T17:32:38.454Z,100433.66
2018-03-17T17:35:42.286Z,100435.44
2018-03-17T17:38:45.438Z,100429.50
2018-03-17T17:41:48.586Z,100440.13
2018-03-17T17:44:51.744Z,100445.08
2018-03-17T17:47:55.184Z,100451.39
2018-03-17T17:50:58.413Z,100453.10
2018-03-17T17:54:01.567Z,100459.81
2018-03-17T17:57:04.966Z,100459.02
2018-03-17T18:00:08.101Z,100461.90
2018-03-17T18:03:11.890Z,100463.49
2018-03-17T18:06:15.889Z,100472.99
2018-03-17T18:09:19.117Z,100472.85
2018-03-17T18:12:22.346Z,100477.19
2018-03-17T18:15:25.535Z,100479.23
2018-03-17T18:18:28.856Z,100490.80
2018-03-17T18:21:32.035Z,100486.79
2018-03-17T18:24:35.265Z,100497.64
2018-03-17T18:27:38.405Z,100506.25
2018-03-17T18:30:41.720Z,100493.82
2018-03-17T18:33:51.057Z,100505.04
2018-03-17T18:36:54.191Z,100503.37
2018-03-17T18:39:57.581Z,100508.89
2018-03-17T18:43:00.751Z,100511.14
2018-03-17T18:46:03.967Z,100500.72
2018-03-17T18:49:07.130Z,100501.69
2018-03-17T18:52:10.311Z,100513.98
2018-03-17T18:55:13.664Z,100508.84
2018-03-17T18:58:16.970Z,100505.29
2018-03-17T19:01:20.119Z,100512.51
2018-03-17T19:04:23.313Z,100509.98
2018-03-17T19:07:26.474Z,100508.66
2018-03-17T19:10:29.699Z,100517.80
2018-03-17T19:13:32.920Z,100522.36
2018-03-17T19:16:36.203Z,100519.80
2018-03-17T19:19:39.349Z,100520.95
2018-03-17T19:22:42.597Z,100518.70
2018-03-17T19:25:45.773Z,100522.88
2018-03-17T19:28:48.957Z,100530.33
2018-03-17T19:31:52.196Z,100538.32
2018-03-17T19:34:55.451Z,100532.13
2018-03-17T19:37:58.860Z,100529.13
2018-03-17T19:41:02.063Z,100529.74
2018-03-17T19:44:05.369Z,100521.52
2018-03-17T19:47:08.531Z,100525.24
2018-03-17T19:50:11.687Z,100535.19
2018-03-17T19:53:14.839Z,100538.87
2018-03-17T19:56:17.992Z,100540.30
2018-03-17T19:59:21.178Z,100538.50
2018-03-17T20:02:24.303Z,100542.70
2018-03-17T20:05:27.504Z,100546.92
2018-03-17T20:08:30.786Z,100549.56
2018-03-17T20:11:34.071Z,100547.37
2018-03-17T20:14:37.197Z,100552.85
2018-03-17T20:17:40.395Z,100549.55
2018-03-17T20:20:43.592Z,100554.16
2018-03-17T20:23:46.777Z,100557.28
2018-03-17T20:26:50.058Z,100559.36
2018-03-17T20:29:53.284Z,100551.36
2018-03-17T20:32:56.483Z,100563.58
2018-03-17T20:35:59.669Z,100565.61
2018-03-17T20:39:02.870Z,100566.85
2018-03-17T20:42:06.028Z,100566.92
2018-03-17T20:45:09.246Z,100564.29
2018-03-17T20:48:12.456Z,100563.61
2018-03-17T20:51:15.600Z,100570.81
2018-03-17T20:54:18.752Z,100572.28
2018-03-17T20:57:22.022Z,100574.22
2018-03-17T21:00:25.227Z,100576.22
2018-03-17T21:03:28.463Z,100582.76
2018-03-17T21:06:31.763Z,100587.11
2018-03-17T21:09:34.948Z,100587.05
2018-03-17T21:12:38.098Z,100584.11
2018-03-17T21:15:41.230Z,100584.33
2018-03-17T21:18:44.386Z,100580.72
2018-03-17T21:21:47.759Z,100576.21
2018-03-17T21:24:50.917Z,100580.59
2018-03-17T21:27:54.351Z,100579.10
2018-03-17T21:30:57.484Z,100579.16
2018-03-17T21:34:00.623Z,100574.70
2018-03-17T21:37:03.774Z,100580.66
2018-03-17T21:40:06.987Z,100578.24
2018-03-17T21:43:10.186Z,100581.74
2018-03-17T21:46:13.361Z,100588.41
2018-03-17T21:49:16.546Z,100587.13
2018-03-17T21:52:20.678Z,100585.59
2018-03-17T21:55:23.871Z,100593.49
2018-03-17T21:58:27.067Z,100589.38
2018-03-17T22:01:30.206Z,100592.29
2018-03-17T22:04:33.362Z,100596.52
2018-03-17T22:07:36.538Z,100593.05
2018-03-17T22:10:39.770Z,100596.80
2018-03-17T22:13:42.941Z,100592.55
2018-03-17T22:16:46.126Z,100603.22
2018-03-17T22:19:49.323Z,100597.27
2018-03-17T22:22:52.521Z,100604.58
2018-03-17T22:25:55.657Z,100603.93
2018-03-17T22:28:58.831Z,100601.78
2018-03-17T22:32:01.993Z,100601.97
2018-03-17T22:35:05.193Z,100596.39
2018-03-17T22:38:08.357Z,100602.58
2018-03-17T22:41:11.592Z,100603.99
2018-03-17T22:44:14.790Z,100605.64
2018-03-17T22:47:18.017Z,100604.50
2018-03-17T22:50:22.519Z,100604.33
2018-03-17T22:53:25.661Z,100604.38
2018-03-17T22:56:28.903Z,100601.43
2018-03-17T22:59:32.082Z,100598.65
2018-03-17T23:02:35.300Z,100597.73
2018-03-17T23:05:38.480Z,100599.73
2018-03-17T23:08:41.637Z,100608.79
2018-03-17T23:11:44.979Z,100607.22
2018-03-17T23:14:48.169Z,100610.44
2018-03-17T23:17:52.212Z,100614.46
2018-03-17T23:20:55.412Z,100611.51
2018-03-17T23:23:58.718Z,100618.23
2018-03-17T23:27:01.877Z,100616.54
2018-03-17T23:30:05.178Z,100617.55
2018-03-17T23:33:08.358Z,100617.69
2018-03-17T23:36:11.661Z,100614.66
2018-03-17T23:39:14.830Z,100617.44
2018-03-17T23:42:17.970Z,100626.05
2018-03-17T23:45:21.168Z,100629.09
2018-03-17T23:48:24.326Z,100629.81
2018-03-17T23:51:27.537Z,100631.37
2018-03-17T23:54:30.761Z,100626.08
2018-03-17T23:57:34.021Z,100624.39
